Time;durP1;ratioP1;P1;durP2;ratioP2;P2;SDS_P1;SDS_P2;PMS_P1;PMS_P2;Temp;Humidity;BMP_temperature;BMP_pressure;BME280_temperature;BME280_humidity;BME280_pressure;Samples;Min_cycle;Max_cycle;Signal;HPM_P1;HPM_P2
2021/09/18 00:02:15;;;;;;;103.03;45.20;;;;;;;;;;5007462;28;20224;-74
2021/09/18 00:04:41;;;;;;;227.80;55.03;;;;;;;;;;5007242;28;20271;-74
2021/09/18 00:07:08;;;;;;;251.70;53.23;;;;;;;;;;5007097;28;21024;-74
2021/09/18 00:09:36;;;;;;;254.57;58.77;;;;;;;;;;5006562;28;20216;-74
2021/09/18 00:12:02;;;;;;;249.60;55.40;;;;;;;;;;5006338;28;20251;-74
2021/09/18 00:14:29;;;;;;;380.50;60.07;;;;;;;;;;5006525;28;20219;-74
2021/09/18 00:16:55;;;;;;;370.43;66.13;;;;;;;;;;5007477;28;20864;-74
2021/09/18 00:19:22;;;;;;;591.53;78.07;;;;;;;;;;5005717;28;20278;-74
2021/09/18 00:21:48;;;;;;;918.33;111.57;;;;;;;;;;5007294;28;20236;-74
2021/09/18 00:24:14;;;;;;;1154.70;136.00;;;;;;;;;;5006563;28;20223;-74
2021/09/18 00:26:42;;;;;;;1247.90;157.77;;;;;;;;;;5006873;28;20224;-74
2021/09/18 00:29:09;;;;;;;1672.83;164.27;;;;;;;;;;5006937;28;20726;-74
2021/09/18 00:31:35;;;;;;;1561.03;171.77;;;;;;;;;;5006703;28;20220;-74
2021/09/18 00:34:01;;;;;;;1040.50;136.90;;;;;;;;;;5007022;28;20212;-74
2021/09/18 00:36:28;;;;;;;1568.90;176.83;;;;;;;;;;5006615;28;20278;-74
2021/09/18 00:38:54;;;;;;;905.47;135.73;;;;;;;;;;5008687;28;20431;-74
2021/09/18 00:41:21;;;;;;;449.90;95.77;;;;;;;;;;5010271;28;20240;-74
2021/09/18 00:43:52;;;;;;;872.80;131.23;;;;;;;;;;5010555;28;20224;-74
2021/09/18 00:46:19;;;;;;;1110.47;162.80;;;;;;;;;;5010333;28;20581;-74
2021/09/18 00:48:46;;;;;;;1057.37;147.50;;;;;;;;;;5010002;28;20622;-74
2021/09/18 00:51:12;;;;;;;1206.27;173.37;;;;;;;;;;5010604;28;20270;-74
2021/09/18 00:53:39;;;;;;;538.40;85.57;;;;;;;;;;5010470;28;20216;-73
2021/09/18 00:56:06;;;;;;;731.87;108.07;;;;;;;;;;5010256;28;20232;-74
2021/09/18 00:58:33;;;;;;;501.20;78.00;;;;;;;;;;5010422;28;20215;-73
2021/09/18 01:01:01;;;;;;;606.07;87.97;;;;;;;;;;5008386;28;21108;-73
2021/09/18 01:03:27;;;;;;;855.83;135.77;;;;;;;;;;5010012;28;20216;-73
2021/09/18 01:05:53;;;;;;;673.00;105.93;;;;;;;;;;5010276;28;20266;-73
2021/09/18 01:08:23;;;;;;;518.77;87.20;;;;;;;;;;5009923;28;20213;-73
2021/09/18 01:10:49;;;;;;;776.33;115.50;;;;;;;;;;5010386;28;20274;-73
2021/09/18 01:13:18;;;;;;;1193.17;167.73;;;;;;;;;;5009720;28;20219;-73
2021/09/18 01:15:45;;;;;;;628.17;103.63;;;;;;;;;;5009977;28;20215;-73
2021/09/18 01:18:13;;;;;;;457.67;87.47;;;;;;;;;;5009962;28;20262;-74
2021/09/18 01:20:41;;;;;;;552.00;111.37;;;;;;;;;;5009247;28;20228;-73
2021/09/18 01:23:10;;;;;;;1159.17;162.93;;;;;;;;;;5009634;28;20267;-73
2021/09/18 01:25:39;;;;;;;932.10;133.97;;;;;;;;;;5009863;28;20606;-73
2021/09/18 03:35:16;;;;;;;1063.90;187.20;;;;;;;;;;4988132;28;20625;-73
2021/09/18 03:37:43;;;;;;;427.73;116.30;;;;;;;;;;5007295;28;20710;-73
2021/09/18 03:40:11;;;;;;;566.53;138.03;;;;;;;;;;5006238;28;20625;-73
2021/09/18 03:42:38;;;;;;;983.67;182.07;;;;;;;;;;5005691;28;20232;-73
2021/09/18 03:45:06;;;;;;;561.80;131.13;;;;;;;;;;5006592;28;20220;-73
2021/09/18 03:47:33;;;;;;;698.13;141.13;;;;;;;;;;5006185;28;20286;-73
2021/09/18 03:49:59;;;;;;;641.50;131.00;;;;;;;;;;5005874;28;20223;-73
2021/09/18 03:52:28;;;;;;;842.47;160.33;;;;;;;;;;5006549;28;20278;-73
2021/09/18 03:54:55;;;;;;;738.07;139.53;;;;;;;;;;5006676;28;20630;-73
2021/09/18 03:57:21;;;;;;;537.60;121.00;;;;;;;;;;5006432;28;20235;-73
2021/09/18 03:59:47;;;;;;;599.37;124.67;;;;;;;;;;5006707;28;21169;-73
2021/09/18 04:02:14;;;;;;;408.97;102.93;;;;;;;;;;5006747;28;20314;-74
2021/09/18 04:04:40;;;;;;;611.83;126.50;;;;;;;;;;5007178;28;20208;-74
2021/09/18 04:07:07;;;;;;;468.50;116.20;;;;;;;;;;5007547;28;20267;-73
2021/09/18 04:09:34;;;;;;;478.23;108.57;;;;;;;;;;5006845;28;20239;-73
2021/09/18 04:12:02;;;;;;;473.40;103.97;;;;;;;;;;5008318;28;20274;-74
2021/09/18 04:14:28;;;;;;;543.30;119.57;;;;;;;;;;5011315;28;20215;-73
2021/09/18 04:16:55;;;;;;;552.73;126.40;;;;;;;;;;5010713;28;20279;-73
2021/09/18 04:19:21;;;;;;;631.40;134.37;;;;;;;;;;5011190;28;20220;-73
2021/09/18 04:21:48;;;;;;;644.57;139.40;;;;;;;;;;5010652;28;20471;-73
2021/09/18 04:24:14;;;;;;;643.23;126.17;;;;;;;;;;5011041;28;20274;-73
2021/09/18 04:26:42;;;;;;;542.00;110.20;;;;;;;;;;5010965;28;20232;-73
2021/09/18 04:29:08;;;;;;;824.87;147.07;;;;;;;;;;5010633;28;20281;-73
2021/09/18 04:31:35;;;;;;;438.70;115.45;;;;;;;;;;5009743;28;20493;-75
2021/09/18 04:34:01;;;;;;;435.67;90.90;;;;;;;;;;5010408;28;20224;-75
2021/09/18 04:36:28;;;;;;;604.27;119.60;;;;;;;;;;5010141;28;20239;-75
2021/09/18 04:38:54;;;;;;;484.30;101.53;;;;;;;;;;5010981;28;20618;-75
2021/09/18 04:41:21;;;;;;;424.27;100.33;;;;;;;;;;5008590;28;20547;-75
2021/09/18 04:43:49;;;;;;;475.20;108.97;;;;;;;;;;5009699;28;20215;-75
2021/09/18 04:46:15;;;;;;;531.27;116.47;;;;;;;;;;5010398;28;20295;-75
2021/09/18 04:48:42;;;;;;;493.67;115.20;;;;;;;;;;5009180;28;20702;-75
2021/09/18 04:51:08;;;;;;;555.07;126.70;;;;;;;;;;5009434;28;20228;-75
2021/09/18 04:53:34;;;;;;;510.03;117.47;;;;;;;;;;5009671;28;20266;-75
2021/09/18 04:56:01;;;;;;;672.80;138.73;;;;;;;;;;5009892;28;20867;-75
2021/09/18 04:58:27;;;;;;;664.87;136.67;;;;;;;;;;5009875;28;20219;-75
2021/09/18 05:00:55;;;;;;;455.07;104.80;;;;;;;;;;5009751;28;20239;-75
2021/09/18 05:03:21;;;;;;;357.67;103.43;;;;;;;;;;5010130;28;20259;-75
2021/09/18 05:05:48;;;;;;;430.27;112.73;;;;;;;;;;5008273;28;20216;-75
2021/09/18 05:08:15;;;;;;;385.53;95.77;;;;;;;;;;5008603;28;20592;-75
2021/09/18 05:10:41;;;;;;;316.63;85.43;;;;;;;;;;5008872;28;20668;-75
2021/09/18 05:13:08;;;;;;;419.27;97.63;;;;;;;;;;5007916;28;20219;-75
2021/09/18 05:15:34;;;;;;;380.03;79.07;;;;;;;;;;5008831;28;20270;-75
2021/09/18 05:18:02;;;;;;;437.57;89.63;;;;;;;;;;5008982;28;20591;-75
2021/09/18 05:20:28;;;;;;;358.57;88.90;;;;;;;;;;5009732;28;20671;-75
2021/09/18 05:22:55;;;;;;;296.87;75.30;;;;;;;;;;5008953;28;20235;-75
2021/09/18 05:25:21;;;;;;;307.37;84.00;;;;;;;;;;5008767;28;20211;-75
2021/09/18 05:27:49;;;;;;;419.30;94.83;;;;;;;;;;5008736;28;20235;-75
2021/09/18 05:30:15;;;;;;;479.40;97.37;;;;;;;;;;5008665;28;20223;-75
2021/09/18 05:32:42;;;;;;;481.73;99.47;;;;;;;;;;5008066;28;20629;-75
2021/09/18 05:35:10;;;;;;;467.63;97.63;;;;;;;;;;5008412;28;20244;-75
2021/09/18 05:37:37;;;;;;;411.90;96.63;;;;;;;;;;5008708;28;20215;-75
2021/09/18 05:40:04;;;;;;;324.20;84.40;;;;;;;;;;5007745;28;20212;-75
2021/09/18 05:42:31;;;;;;;362.93;94.83;;;;;;;;;;5008230;28;20239;-75
2021/09/18 05:44:58;;;;;;;324.17;87.37;;;;;;;;;;5008467;28;21063;-75
2021/09/18 05:47:24;;;;;;;396.37;91.70;;;;;;;;;;5008396;28;20217;-75
2021/09/18 05:49:50;;;;;;;319.67;87.10;;;;;;;;;;5008234;28;20633;-75
2021/09/18 05:52:18;;;;;;;346.50;85.10;;;;;;;;;;5007129;28;20216;-75
2021/09/18 05:54:45;;;;;;;590.97;108.33;;;;;;;;;;5007594;28;20220;-75
2021/09/18 05:57:11;;;;;;;433.27;83.23;;;;;;;;;;5007672;28;20294;-75
2021/09/18 05:59:37;;;;;;;684.73;123.03;;;;;;;;;;5008172;28;20262;-75
2021/09/18 06:02:04;;;;;;;507.90;98.60;;;;;;;;;;5007525;28;20698;-75
2021/09/18 06:04:30;;;;;;;315.67;84.40;;;;;;;;;;5008493;28;20219;-75
2021/09/18 06:06:57;;;;;;;518.23;107.70;;;;;;;;;;5007033;28;20276;-75
2021/09/18 06:09:24;;;;;;;340.03;84.40;;;;;;;;;;5006442;28;20216;-75
2021/09/18 06:11:51;;;;;;;259.90;76.07;;;;;;;;;;5007308;28;21266;-75
2021/09/18 06:14:17;;;;;;;291.80;77.33;;;;;;;;;;5005484;28;20216;-75
2021/09/18 06:16:44;;;;;;;253.27;73.27;;;;;;;;;;5006849;28;20215;-75
2021/09/18 06:19:11;;;;;;;308.47;67.17;;;;;;;;;;5006830;28;20266;-75
2021/09/18 06:21:38;;;;;;;463.67;83.23;;;;;;;;;;5006890;28;20237;-74
2021/09/18 06:24:10;;;;;;;422.17;80.53;;;;;;;;;;5006543;28;20217;-75
2021/09/18 06:26:37;;;;;;;535.60;92.77;;;;;;;;;;5006078;28;20553;-74
2021/09/18 06:29:04;;;;;;;492.93;86.83;;;;;;;;;;5006301;28;20292;-74
2021/09/18 06:31:30;;;;;;;206.50;65.33;;;;;;;;;;5005145;28;20215;-74
2021/09/18 06:33:57;;;;;;;269.43;69.80;;;;;;;;;;5006308;28;20262;-74
2021/09/18 06:36:23;;;;;;;264.00;71.53;;;;;;;;;;5004665;28;21163;-74
2021/09/18 06:38:50;;;;;;;424.27;74.83;;;;;;;;;;5005360;28;20216;-75
2021/09/18 06:41:16;;;;;;;447.13;75.37;;;;;;;;;;5004776;28;20545;-74
2021/09/18 06:43:44;;;;;;;473.47;76.00;;;;;;;;;;5005959;28;20671;-75
2021/09/18 06:46:10;;;;;;;531.90;83.17;;;;;;;;;;5006202;28;20827;-74
2021/09/18 06:48:37;;;;;;;464.30;80.67;;;;;;;;;;5006000;28;20246;-75
2021/09/18 06:51:04;;;;;;;330.20;61.77;;;;;;;;;;5006236;28;20213;-74
2021/09/18 06:53:30;;;;;;;394.23;63.97;;;;;;;;;;5005992;28;20760;-75
2021/09/18 06:55:56;;;;;;;402.60;69.93;;;;;;;;;;5005395;28;21160;-74
2021/09/18 06:58:23;;;;;;;656.77;111.53;;;;;;;;;;5005398;28;20266;-74
2021/09/18 07:00:51;;;;;;;413.63;64.13;;;;;;;;;;5005841;28;20785;-74
2021/09/18 07:03:17;;;;;;;231.37;58.37;;;;;;;;;;5006446;28;20760;-74
2021/09/18 07:05:43;;;;;;;204.37;57.13;;;;;;;;;;5004620;28;20218;-74
2021/09/18 07:08:10;;;;;;;208.97;53.90;;;;;;;;;;5005173;28;20738;-75
2021/09/18 07:10:36;;;;;;;313.40;69.77;;;;;;;;;;5005537;28;20224;-75
2021/09/18 07:13:03;;;;;;;257.20;57.27;;;;;;;;;;5005948;28;20228;-75
2021/09/18 07:15:30;;;;;;;343.23;68.07;;;;;;;;;;5003523;28;20216;-75
2021/09/18 07:17:57;;;;;;;312.07;64.63;;;;;;;;;;5005336;28;20278;-75
2021/09/18 07:20:24;;;;;;;351.53;62.90;;;;;;;;;;5004808;28;20244;-74
2021/09/18 07:22:51;;;;;;;354.20;56.67;;;;;;;;;;5005643;28;20695;-74
2021/09/18 07:25:17;;;;;;;259.30;52.00;;;;;;;;;;5005251;28;20410;-74
2021/09/18 07:27:44;;;;;;;324.20;53.90;;;;;;;;;;5004662;28;20229;-75
2021/09/18 07:30:11;;;;;;;117.67;46.07;;;;;;;;;;5003744;28;20213;-74
2021/09/18 07:32:37;;;;;;;394.97;72.07;;;;;;;;;;5005141;28;20258;-74
2021/09/18 07:35:06;;;;;;;160.80;44.90;;;;;;;;;;5005267;28;20253;-74
2021/09/18 07:37:34;;;;;;;202.87;52.33;;;;;;;;;;5005099;28;20248;-74
2021/09/18 07:40:01;;;;;;;142.57;47.30;;;;;;;;;;5005280;28;20268;-74
2021/09/18 07:42:28;;;;;;;98.43;44.03;;;;;;;;;;5004515;28;20636;-74
2021/09/18 07:44:54;;;;;;;85.37;37.30;;;;;;;;;;5005434;28;20227;-74
2021/09/18 07:47:20;;;;;;;194.47;48.27;;;;;;;;;;5002641;28;20221;-74
2021/09/18 07:49:47;;;;;;;179.03;47.40;;;;;;;;;;5005311;28;20226;-74
2021/09/18 07:52:14;;;;;;;127.77;45.43;;;;;;;;;;5005094;28;20272;-74
2021/09/18 07:54:41;;;;;;;81.13;43.83;;;;;;;;;;5005091;28;20296;-74
2021/09/18 07:57:07;;;;;;;125.83;42.70;;;;;;;;;;5005071;28;20233;-74
2021/09/18 07:59:33;;;;;;;174.43;44.90;;;;;;;;;;5005383;28;20221;-74
2021/09/18 08:02:00;;;;;;;169.07;44.13;;;;;;;;;;5005384;28;20236;-74
2021/09/18 08:04:27;;;;;;;94.47;43.00;;;;;;;;;;5004999;28;20306;-74
2021/09/18 08:06:54;;;;;;;100.60;42.70;;;;;;;;;;5005454;28;20212;-74
2021/09/18 08:09:23;;;;;;;119.90;43.97;;;;;;;;;;5004528;28;20236;-74
2021/09/18 08:11:50;;;;;;;177.10;42.67;;;;;;;;;;5004695;28;20238;-74
2021/09/18 08:14:16;;;;;;;112.30;41.77;;;;;;;;;;5005184;28;20248;-74
2021/09/18 08:16:43;;;;;;;85.27;41.40;;;;;;;;;;5005310;28;20247;-74
2021/09/18 08:19:09;;;;;;;116.57;40.50;;;;;;;;;;5005014;28;20225;-74
2021/09/18 08:21:36;;;;;;;110.53;42.67;;;;;;;;;;5005038;28;20223;-74
2021/09/18 08:24:02;;;;;;;90.83;42.23;;;;;;;;;;5005203;28;20217;-74
2021/09/18 08:26:30;;;;;;;90.50;41.37;;;;;;;;;;5004289;28;20287;-74
2021/09/18 08:28:57;;;;;;;114.93;42.63;;;;;;;;;;5004766;28;20299;-74
2021/09/18 08:31:24;;;;;;;105.87;43.90;;;;;;;;;;5004652;28;20764;-75
2021/09/18 08:33:50;;;;;;;70.80;39.57;;;;;;;;;;5004574;28;20595;-74
2021/09/18 08:36:17;;;;;;;70.53;39.93;;;;;;;;;;5002899;28;20244;-74
2021/09/18 08:38:43;;;;;;;65.87;39.47;;;;;;;;;;5003259;28;20774;-74
2021/09/18 08:41:10;;;;;;;59.70;40.70;;;;;;;;;;5003615;28;20251;-74
2021/09/18 08:43:38;;;;;;;76.50;39.53;;;;;;;;;;5005190;28;20225;-74
2021/09/18 08:46:04;;;;;;;65.63;39.50;;;;;;;;;;5004069;28;20212;-74
2021/09/18 08:48:34;;;;;;;65.60;38.97;;;;;;;;;;5002626;28;20214;-74
2021/09/18 08:51:01;;;;;;;72.73;39.40;;;;;;;;;;5004881;28;20758;-74
2021/09/18 08:53:27;;;;;;;61.30;36.83;;;;;;;;;;5004633;28;20219;-74
2021/09/18 08:55:54;;;;;;;47.13;35.97;;;;;;;;;;5004492;28;20630;-74
2021/09/18 08:58:21;;;;;;;48.77;35.27;;;;;;;;;;5004536;28;20217;-74
2021/09/18 09:00:51;;;;;;;47.67;36.67;;;;;;;;;;5008286;28;20667;-74
2021/09/18 09:03:29;;;;;;;46.57;34.77;;;;;;;;;;5008014;28;20317;-74
2021/09/18 09:06:06;;;;;;;40.63;35.67;;;;;;;;;;5007673;28;20345;-74
2021/09/18 09:08:33;;;;;;;56.67;35.63;;;;;;;;;;5006983;28;20669;-74
2021/09/18 09:11:14;;;;;;;39.50;35.17;;;;;;;;;;5007168;28;20297;-74
2021/09/18 09:13:53;;;;;;;44.80;38.00;;;;;;;;;;5006825;28;20247;-74
2021/09/18 09:16:21;;;;;;;50.17;38.73;;;;;;;;;;5007866;28;20618;-74
2021/09/18 09:18:48;;;;;;;47.00;37.73;;;;;;;;;;5008263;28;20610;-73
2021/09/18 09:21:17;;;;;;;44.37;37.17;;;;;;;;;;5006838;28;20206;-74
2021/09/18 09:23:46;;;;;;;55.53;38.73;;;;;;;;;;5006911;28;20250;-73
2021/09/18 09:26:15;;;;;;;48.90;39.07;;;;;;;;;;5007630;28;20302;-73
2021/09/18 09:28:43;;;;;;;45.63;40.60;;;;;;;;;;5007264;28;20216;-74
2021/09/18 09:31:15;;;;;;;43.10;38.33;;;;;;;;;;5005915;28;20231;-74
2021/09/18 09:34:04;;;;;;;45.63;39.77;;;;;;;;;;5006827;28;20219;-73
2021/09/18 09:36:35;;;;;;;45.30;40.30;;;;;;;;;;5006257;28;20266;-72
2021/09/18 09:39:05;;;;;;;46.27;40.67;;;;;;;;;;5006699;28;20691;-73
2021/09/18 09:41:33;;;;;;;45.37;40.43;;;;;;;;;;5007597;28;20320;-73
2021/09/18 09:44:00;;;;;;;52.47;41.93;;;;;;;;;;5007115;28;20241;-73
2021/09/18 09:46:27;;;;;;;51.70;42.63;;;;;;;;;;5007176;28;21168;-73
2021/09/18 09:49:16;;;;;;;47.13;41.60;;;;;;;;;;5007439;28;20222;-73
2021/09/18 09:51:44;;;;;;;49.17;43.77;;;;;;;;;;5002680;28;20223;-73
2021/09/18 09:54:19;;;;;;;47.00;41.00;;;;;;;;;;5006699;28;20259;-73
2021/09/18 09:56:46;;;;;;;46.97;39.23;;;;;;;;;;5006860;28;20662;-73
2021/09/18 09:59:12;;;;;;;45.07;40.17;;;;;;;;;;5007107;28;20634;-73
2021/09/18 10:01:39;;;;;;;44.13;39.57;;;;;;;;;;5007340;28;20222;-73
2021/09/18 10:04:05;;;;;;;45.47;39.90;;;;;;;;;;5007005;28;20300;-73
2021/09/18 10:06:33;;;;;;;46.20;40.33;;;;;;;;;;5007579;28;20301;-73
2021/09/18 10:09:00;;;;;;;44.50;39.87;;;;;;;;;;5006561;28;20211;-73
2021/09/18 10:11:30;;;;;;;48.23;40.80;;;;;;;;;;5006583;28;20235;-72
2021/09/18 10:13:57;;;;;;;43.53;39.10;;;;;;;;;;5006650;28;20215;-73
2021/09/18 10:16:27;;;;;;;43.10;38.63;;;;;;;;;;5006330;28;20296;-73
2021/09/18 10:18:55;;;;;;;48.27;40.20;;;;;;;;;;5006617;28;20330;-73
2021/09/18 10:24:09;;;;;;;45.27;40.47;;;;;;;;;;5006055;28;20231;-73
2021/09/18 10:26:36;;;;;;;42.43;37.93;;;;;;;;;;5006633;28;20255;-73
2021/09/18 10:29:03;;;;;;;44.97;39.73;;;;;;;;;;5006491;28;20703;-73
2021/09/18 10:31:30;;;;;;;46.83;41.83;;;;;;;;;;5006591;28;20216;-72
2021/09/18 10:33:57;;;;;;;46.27;41.37;;;;;;;;;;5005564;28;20565;-72
2021/09/18 10:36:40;;;;;;;45.17;39.83;;;;;;;;;;5006109;28;20330;-72
2021/09/18 10:39:11;;;;;;;43.93;39.27;;;;;;;;;;5005796;28;20227;-73
2021/09/18 10:41:41;;;;;;;43.27;38.83;;;;;;;;;;5006031;28;20228;-72
2021/09/18 10:44:07;;;;;;;46.57;41.77;;;;;;;;;;5005412;28;20585;-72
2021/09/18 10:46:43;;;;;;;44.60;39.83;;;;;;;;;;5005905;28;20208;-72
2021/09/18 10:49:37;;;;;;;47.43;42.00;;;;;;;;;;5005887;28;20287;-72
2021/09/18 10:52:25;;;;;;;45.97;41.07;;;;;;;;;;5006535;28;20213;-72
2021/09/18 10:55:14;;;;;;;47.03;42.23;;;;;;;;;;5006075;28;20279;-73
2021/09/18 10:58:07;;;;;;;47.40;42.30;;;;;;;;;;5005945;28;20232;-73
2021/09/18 11:00:50;;;;;;;42.20;37.73;;;;;;;;;;5005956;28;20307;-72
2021/09/18 11:03:34;;;;;;;39.97;36.00;;;;;;;;;;5005963;28;20220;-73
2021/09/18 11:06:00;;;;;;;39.20;35.53;;;;;;;;;;5006180;28;20202;-73
2021/09/18 11:08:29;;;;;;;37.23;33.67;;;;;;;;;;5005949;28;20275;-73
2021/09/18 11:11:00;;;;;;;41.73;37.20;;;;;;;;;;5005323;28;20576;-73
2021/09/18 11:13:32;;;;;;;37.33;33.73;;;;;;;;;;5005422;28;20212;-73
2021/09/18 11:15:59;;;;;;;39.50;35.80;;;;;;;;;;5005229;28;20215;-73
2021/09/18 11:18:35;;;;;;;37.03;33.57;;;;;;;;;;5005624;28;20218;-73
2021/09/18 11:21:17;;;;;;;39.63;35.83;;;;;;;;;;5005554;28;20336;-73
2021/09/18 11:23:46;;;;;;;36.27;32.73;;;;;;;;;;5003789;28;20239;-75
2021/09/18 11:26:40;;;;;;;36.00;32.70;;;;;;;;;;5005289;28;20668;-75
2021/09/18 11:29:11;;;;;;;35.20;31.90;;;;;;;;;;5005422;28;20230;-75
2021/09/18 11:31:39;;;;;;;36.47;33.03;;;;;;;;;;5005986;28;20220;-75
2021/09/18 11:34:06;;;;;;;35.80;32.53;;;;;;;;;;5005691;28;20219;-75
2021/09/18 11:36:43;;;;;;;39.30;35.20;;;;;;;;;;5006037;28;20250;-75
2021/09/18 11:39:10;;;;;;;33.13;29.83;;;;;;;;;;5005241;28;20591;-75
2021/09/18 11:41:38;;;;;;;36.80;33.30;;;;;;;;;;5005522;28;20228;-75
2021/09/18 11:44:09;;;;;;;33.30;30.20;;;;;;;;;;5005162;28;20243;-75
2021/09/18 11:46:35;;;;;;;32.93;30.07;;;;;;;;;;5005875;28;20223;-76
2021/09/18 11:49:03;;;;;;;34.53;30.97;;;;;;;;;;5005678;28;20216;-76
2021/09/18 11:51:30;;;;;;;34.93;31.60;;;;;;;;;;5004435;28;20215;-74
2021/09/18 11:54:00;;;;;;;37.07;33.57;;;;;;;;;;5004590;28;20248;-74
2021/09/18 11:56:27;;;;;;;32.63;29.63;;;;;;;;;;5004516;28;20254;-74
2021/09/18 11:58:55;;;;;;;32.67;29.57;;;;;;;;;;5005222;28;20266;-73
2021/09/18 12:01:21;;;;;;;36.40;28.87;;;;;;;;;;5004884;28;20215;-74
2021/09/18 12:03:50;;;;;;;28.02;25.27;;;;;;;;;;5004827;28;20621;-75
2021/09/18 12:06:18;;;;;;;22.40;20.30;;;;;;;;;;5004772;28;20218;-75
2021/09/18 12:08:47;;;;;;;22.50;20.33;;;;;;;;;;5005271;28;20214;-75
2021/09/18 12:11:17;;;;;;;22.00;19.97;;;;;;;;;;5005130;28;20234;-74
2021/09/18 12:13:45;;;;;;;22.40;20.20;;;;;;;;;;5003139;28;20722;-74
2021/09/18 12:16:14;;;;;;;18.77;17.00;;;;;;;;;;5003446;28;20639;-75
2021/09/18 12:18:42;;;;;;;19.13;17.43;;;;;;;;;;5004280;28;20744;-74
2021/09/18 12:21:10;;;;;;;20.13;18.07;;;;;;;;;;5003749;28;20843;-74
2021/09/18 12:23:41;;;;;;;18.23;16.53;;;;;;;;;;5003247;28;20232;-74
2021/09/18 12:26:08;;;;;;;20.73;18.93;;;;;;;;;;5004339;28;20294;-74
2021/09/18 12:28:35;;;;;;;21.43;18.80;;;;;;;;;;5004561;28;20215;-75
2021/09/18 12:31:15;;;;;;;18.33;16.53;;;;;;;;;;5005091;28;20293;-75
2021/09/18 12:33:42;;;;;;;17.63;16.10;;;;;;;;;;5007258;28;20214;-75
2021/09/18 12:36:11;;;;;;;13.60;12.37;;;;;;;;;;5007566;28;20760;-75
2021/09/18 12:38:38;;;;;;;15.20;13.80;;;;;;;;;;5006902;28;20227;-75
2021/09/18 12:41:07;;;;;;;15.20;13.97;;;;;;;;;;5008146;28;20699;-75
2021/09/18 12:43:34;;;;;;;12.33;11.23;;;;;;;;;;5007888;28;20244;-75
2021/09/18 12:46:08;;;;;;;14.93;13.50;;;;;;;;;;5007717;28;20264;-75
2021/09/18 12:48:36;;;;;;;15.10;13.70;;;;;;;;;;5008611;28;20213;-75
2021/09/18 12:51:06;;;;;;;14.07;12.87;;;;;;;;;;5008405;28;20665;-74
2021/09/18 12:53:34;;;;;;;14.27;12.87;;;;;;;;;;5008085;28;20209;-74
2021/09/18 12:56:22;;;;;;;13.27;12.07;;;;;;;;;;5007897;28;20702;-74
2021/09/18 12:58:50;;;;;;;11.90;10.60;;;;;;;;;;5007134;28;20218;-74
2021/09/18 13:01:19;;;;;;;11.33;10.17;;;;;;;;;;5007993;28;20216;-74
2021/09/18 13:03:59;;;;;;;11.27;10.17;;;;;;;;;;5008052;28;20231;-74
2021/09/18 13:06:25;;;;;;;10.17;9.13;;;;;;;;;;5008033;28;20624;-75
2021/09/18 13:08:57;;;;;;;11.40;10.30;;;;;;;;;;5008422;28;20215;-74
2021/09/18 13:11:25;;;;;;;10.27;9.27;;;;;;;;;;5007689;28;20232;-75
2021/09/18 13:13:53;;;;;;;11.87;10.77;;;;;;;;;;5008173;28;20231;-74
2021/09/18 13:16:21;;;;;;;10.50;9.40;;;;;;;;;;5007931;28;20555;-75
2021/09/18 13:19:06;;;;;;;13.80;12.60;;;;;;;;;;5008179;28;20560;-75
2021/09/18 13:21:32;;;;;;;13.70;12.50;;;;;;;;;;5008116;28;20291;-74
2021/09/18 13:23:59;;;;;;;13.27;12.07;;;;;;;;;;5008215;28;20231;-75
2021/09/18 13:26:25;;;;;;;15.20;13.87;;;;;;;;;;5007637;28;20275;-75
2021/09/18 13:28:52;;;;;;;15.07;13.43;;;;;;;;;;5008044;28;20684;-75
2021/09/18 13:31:18;;;;;;;13.80;12.65;;;;;;;;;;5008301;28;20447;-77
2021/09/18 13:33:45;;;;;;;13.30;12.00;;;;;;;;;;5011318;28;20657;-77
2021/09/18 13:36:13;;;;;;;14.37;13.03;;;;;;;;;;5008998;28;20239;-78
2021/09/18 13:38:39;;;;;;;12.23;11.00;;;;;;;;;;5015375;28;20223;-78
2021/09/18 13:41:06;;;;;;;11.87;10.70;;;;;;;;;;5011859;28;20301;-78
2021/09/18 13:43:32;;;;;;;10.17;9.20;;;;;;;;;;5008337;28;20996;-77
2021/09/18 13:45:59;;;;;;;11.03;10.10;;;;;;;;;;5008314;28;20262;-77
2021/09/18 13:48:25;;;;;;;11.60;10.60;;;;;;;;;;5008708;28;20227;-77
2021/09/18 13:50:52;;;;;;;9.73;8.80;;;;;;;;;;5008420;28;20222;-77
2021/09/18 13:53:20;;;;;;;9.97;8.70;;;;;;;;;;5008574;28;20269;-77
2021/09/18 13:55:47;;;;;;;10.70;9.63;;;;;;;;;;5008964;28;20212;-77
2021/09/18 13:58:14;;;;;;;10.23;9.20;;;;;;;;;;5008078;28;20312;-77
2021/09/18 14:00:40;;;;;;;9.43;8.63;;;;;;;;;;5008148;28;20560;-77
2021/09/18 14:03:07;;;;;;;8.90;8.10;;;;;;;;;;5008416;28;20262;-77
2021/09/18 14:05:33;;;;;;;10.20;9.20;;;;;;;;;;5007322;28;21016;-77
2021/09/18 14:08:00;;;;;;;10.53;8.93;;;;;;;;;;5006478;28;20483;-77
2021/09/18 14:10:28;;;;;;;9.80;8.80;;;;;;;;;;5007053;28;20220;-78
2021/09/18 14:12:54;;;;;;;9.30;8.50;;;;;;;;;;5006089;28;20226;-77
2021/09/18 14:15:21;;;;;;;7.83;6.73;;;;;;;;;;5006454;28;20219;-77
2021/09/18 14:17:48;;;;;;;8.93;7.97;;;;;;;;;;5005496;28;20219;-77
2021/09/18 14:20:15;;;;;;;7.60;6.90;;;;;;;;;;5006487;28;20302;-77
2021/09/18 14:22:42;;;;;;;8.40;7.60;;;;;;;;;;5006915;28;20764;-77
2021/09/18 14:25:10;;;;;;;10.67;8.20;;;;;;;;;;5007415;28;20589;-76
2021/09/18 14:27:38;;;;;;;8.77;8.07;;;;;;;;;;5006352;28;20575;-77
2021/09/18 14:30:06;;;;;;;8.33;7.53;;;;;;;;;;5013902;28;20219;-79
2021/09/18 14:32:33;;;;;;;9.10;8.30;;;;;;;;;;5022349;28;20215;-79
2021/09/18 14:34:59;;;;;;;9.40;8.40;;;;;;;;;;5021201;28;20343;-79
2021/09/18 14:37:26;;;;;;;9.10;8.20;;;;;;;;;;5021160;28;20214;-79
2021/09/18 14:39:53;;;;;;;8.40;7.33;;;;;;;;;;5019882;28;20233;-79
2021/09/18 14:42:19;;;;;;;8.47;7.57;;;;;;;;;;5010810;28;20242;-77
2021/09/18 14:44:47;;;;;;;9.33;7.13;;;;;;;;;;5014036;28;20761;-79
2021/09/18 14:47:13;;;;;;;8.33;7.47;;;;;;;;;;5017943;28;20249;-78
2021/09/18 14:49:40;;;;;;;7.60;7.00;;;;;;;;;;5017638;28;20221;-78
2021/09/18 14:52:07;;;;;;;7.57;6.77;;;;;;;;;;5018760;28;20213;-79
2021/09/18 14:54:34;;;;;;;7.50;6.80;;;;;;;;;;5021694;28;20274;-78
2021/09/18 14:57:00;;;;;;;8.37;7.23;;;;;;;;;;5020635;28;20235;-79
2021/09/18 14:59:27;;;;;;;7.83;7.13;;;;;;;;;;5022216;28;20977;-79
2021/09/18 15:01:56;;;;;;;7.00;6.27;;;;;;;;;;5021509;28;20211;-79
2021/09/18 15:04:22;;;;;;;6.87;6.27;;;;;;;;;;5021069;28;20249;-79
2021/09/18 15:06:49;;;;;;;8.87;6.60;;;;;;;;;;5019247;28;20334;-79
2021/09/18 15:09:15;;;;;;;7.77;7.13;;;;;;;;;;5020446;28;20211;-79
2021/09/18 15:11:41;;;;;;;10.50;7.57;;;;;;;;;;5018398;28;20228;-79
2021/09/18 15:14:08;;;;;;;7.13;6.53;;;;;;;;;;5018119;28;20223;-79
2021/09/18 15:16:34;;;;;;;8.07;6.13;;;;;;;;;;5017707;28;20218;-79
2021/09/18 15:19:02;;;;;;;7.80;6.70;;;;;;;;;;5014471;28;20266;-79
2021/09/18 15:21:29;;;;;;;7.53;6.77;;;;;;;;;;5013578;28;20326;-79
2021/09/18 15:23:56;;;;;;;8.20;7.43;;;;;;;;;;5012539;28;20214;-78
2021/09/18 15:26:22;;;;;;;7.33;6.70;;;;;;;;;;5014040;28;21203;-79
2021/09/18 15:28:49;;;;;;;7.23;6.63;;;;;;;;;;5014253;28;20276;-79
2021/09/18 15:31:16;;;;;;;8.10;7.33;;;;;;;;;;5010927;28;20220;-77
2021/09/18 15:33:42;;;;;;;7.73;7.03;;;;;;;;;;5005966;28;20294;-77
2021/09/18 15:36:10;;;;;;;8.47;7.00;;;;;;;;;;5004980;28;20241;-77
2021/09/18 15:38:37;;;;;;;9.07;7.77;;;;;;;;;;5004621;28;20220;-77
2021/09/18 15:41:04;;;;;;;9.03;8.23;;;;;;;;;;5005348;28;20606;-77
2021/09/18 15:43:30;;;;;;;9.13;8.23;;;;;;;;;;5006411;28;20219;-77
2021/09/18 15:45:57;;;;;;;10.13;8.63;;;;;;;;;;5005060;28;20259;-77
2021/09/18 15:48:23;;;;;;;10.93;9.10;;;;;;;;;;5006406;28;20270;-77
2021/09/18 15:50:50;;;;;;;10.27;9.33;;;;;;;;;;5004933;28;20257;-77
2021/09/18 15:53:17;;;;;;;10.00;9.10;;;;;;;;;;5005707;28;20221;-77
2021/09/18 15:55:44;;;;;;;9.40;8.50;;;;;;;;;;5005177;28;20223;-77
2021/09/18 15:58:10;;;;;;;10.43;8.80;;;;;;;;;;5004426;28;20216;-77
2021/09/18 16:00:36;;;;;;;9.43;8.60;;;;;;;;;;5005418;28;20252;-77
2021/09/18 16:03:03;;;;;;;10.90;9.80;;;;;;;;;;5005219;28;20261;-77
2021/09/18 16:05:30;;;;;;;10.10;9.17;;;;;;;;;;5005701;28;20333;-77
2021/09/18 16:07:56;;;;;;;10.47;9.37;;;;;;;;;;5004494;28;20627;-77
2021/09/18 16:10:24;;;;;;;10.37;9.40;;;;;;;;;;5005887;28;20216;-77
2021/09/18 16:12:51;;;;;;;11.47;9.50;;;;;;;;;;5005145;28;20281;-77
2021/09/18 16:15:17;;;;;;;10.00;9.00;;;;;;;;;;5005354;28;20279;-77
2021/09/18 16:17:44;;;;;;;10.77;9.20;;;;;;;;;;5004759;28;20219;-77
2021/09/18 16:20:12;;;;;;;9.73;8.73;;;;;;;;;;5004963;28;20243;-77
2021/09/18 16:22:39;;;;;;;10.63;9.50;;;;;;;;;;5005432;28;20212;-77
2021/09/18 16:25:07;;;;;;;10.47;9.40;;;;;;;;;;5004709;28;20749;-77
2021/09/18 16:27:35;;;;;;;11.17;9.90;;;;;;;;;;5005015;28;20228;-77
2021/09/18 16:30:02;;;;;;;10.67;9.57;;;;;;;;;;5004861;28;20216;-77